首页
METAR-TAF:

METAR-TAF

机场 :

格拉纳达, 西班牙

纬度: 37-11N, 经度: 003-47W, 海拔: 567米

当前天气观测

该预报发布于36分钟前的05:30 UTC
风速1节,风向多变
温度 4°C
湿度 93%
气压 1014 hPa
能见度10公里或以上
少量云层高于3000英尺, 塔状积云.
散云层高于5000英尺

METAR: LEGR 220530Z VRB01KT 9999 FEW030TCU SCT050 04/03 Q1014

时间: 07:06 (06:06 UTC)

预报

该预报发布于4小时和6分钟前的02:00 UTC
预报有效从22日的 03点(UTC)到 23日的 03点(UTC)
风速5节,风向
能见度10公里或以上
散云层高于2000英尺
散云层高于4000英尺
几率 30% :
短暂存在
从 22日的 03点(UTC)到 22日的 09点(UTC)
能見度: 4000
多云层高于1400英尺
散云层高于3000英尺, 塔状积云.
阵雨

TAF: LEGR 220200Z 2203/2303 09005KT 9999 SCT020 SCT040 TX10/2215Z TN01/2207Z PROB30 TEMPO 2203/2209 4000 SHRA BKN014 SCT030TCU

超过4000个机场的气象观测和天气预报(METAR&TAF报告)。

可查询的气象台以黄色和红色小点在地图上表示。

将鼠标移到小点上方,可查看气象台名称。

然后点击查看天气观测和预报。

如需切换地图:点击带黑十字的绿色按钮放大地图;点击带横线的绿色按钮缩小地图;或者点击绿色箭头查看邻近地区的地图。


METAR-TAF: